Weather at Rigshospitalet Helipad

Public forecast

Using degrees Celsius for public forecast. Weather courtesy of forecast.io.

Closest aviation weather report (METAR) to Rigshospitalet Helipad

Closest report is Copenhagen Kastrup Airport, 5.6 nm (10.4 km) SSE. Retrieved 2021/10/16 03:20 UTC (19 minutes ago):

EKCH 160320Z AUTO 27011KT 9999 NCD 07/04 Q1015 NOSIG

Closest aviation forecast (TAF) to Rigshospitalet Helipad

Closest forecast is Copenhagen Kastrup Airport, 5.6 nm (10.4 km) SSE. Retrieved 2021-10-16 00:30 UTC (3 hours ago):

TAF EKCH 152303Z 1600/1624 28012KT 9999 SCT030 TEMPO 1610/1618 27015G25KT SCT025TCU TEMPO 1618/1624 SCT025TCU